Terminal Aerodrome Forecast
Issued by NWS

Home | Current Version | Previous Version | Text Only | Print | Product List | Glossary On
Versions: 1 2 3 4 5 6 7 8 9 10 11 12 13 14
047
FTUS43 KEAX 250520
TAFMKC
TAF
KMKC 250520Z 2506/2606 34007KT P6SM BKN100
     FM251000 35005KT P6SM VCSH BKN050
     FM251400 36007KT 5SM -RA BR OVC015
     FM251800 03005KT 3SM -RA BR OVC009
     FM252200 02006KT P6SM OVC015
     FM260100 32004KT P6SM BKN050=

USA.gov is the U.S. government's official web portal to all federal, state and local government web resources and services.